sensor_id;sensor_type;location;lat;lon;timestamp;temperature;humidity
19110;DHT22;9687;50.836;12.060;2023-02-28T00:01:05;3.50;79.80
19110;DHT22;9687;50.836;12.060;2023-02-28T00:03:33;3.50;79.70
19110;DHT22;9687;50.836;12.060;2023-02-28T00:06:01;3.50;79.70
19110;DHT22;9687;50.836;12.060;2023-02-28T00:08:30;3.50;79.70
19110;DHT22;9687;50.836;12.060;2023-02-28T00:11:02;3.50;79.60
19110;DHT22;9687;50.836;12.060;2023-02-28T00:13:29;3.50;79.60
19110;DHT22;9687;50.836;12.060;2023-02-28T00:16:01;3.50;79.60
19110;DHT22;9687;50.836;12.060;2023-02-28T00:18:28;3.50;79.70
19110;DHT22;9687;50.836;12.060;2023-02-28T00:20:56;3.50;79.70
19110;DHT22;9687;50.836;12.060;2023-02-28T00:23:23;3.50;79.70
19110;DHT22;9687;50.836;12.060;2023-02-28T00:25:51;3.50;79.70
19110;DHT22;9687;50.836;12.060;2023-02-28T00:28:20;3.50;79.70
19110;DHT22;9687;50.836;12.060;2023-02-28T00:30:47;3.50;79.80
19110;DHT22;9687;50.836;12.060;2023-02-28T00:33:15;3.50;79.80
19110;DHT22;9687;50.836;12.060;2023-02-28T00:35:42;3.50;79.80
19110;DHT22;9687;50.836;12.060;2023-02-28T00:38:12;3.40;79.10
19110;DHT22;9687;50.836;12.060;2023-02-28T00:40:39;3.50;79.90
19110;DHT22;9687;50.836;12.060;2023-02-28T00:43:07;3.50;79.90
19110;DHT22;9687;50.836;12.060;2023-02-28T00:45:35;3.50;79.90
19110;DHT22;9687;50.836;12.060;2023-02-28T00:48:03;3.50;79.90
19110;DHT22;9687;50.836;12.060;2023-02-28T00:50:31;3.50;79.90
19110;DHT22;9687;50.836;12.060;2023-02-28T00:52:58;3.50;80.70
19110;DHT22;9687;50.836;12.060;2023-02-28T00:55:26;3.50;79.90
19110;DHT22;9687;50.836;12.060;2023-02-28T00:57:53;3.50;79.90
19110;DHT22;9687;50.836;12.060;2023-02-28T01:00:21;3.40;79.90
19110;DHT22;9687;50.836;12.060;2023-02-28T01:02:49;3.40;80.00
19110;DHT22;9687;50.836;12.060;2023-02-28T01:05:17;3.40;80.00
19110;DHT22;9687;50.836;12.060;2023-02-28T01:07:44;3.40;80.10
19110;DHT22;9687;50.836;12.060;2023-02-28T01:10:11;3.40;80.10
19110;DHT22;9687;50.836;12.060;2023-02-28T01:12:38;3.40;80.10
19110;DHT22;9687;50.836;12.060;2023-02-28T01:15:06;3.40;80.10
19110;DHT22;9687;50.836;12.060;2023-02-28T01:17:34;3.40;80.10
19110;DHT22;9687;50.836;12.060;2023-02-28T01:20:02;3.40;80.20
19110;DHT22;9687;50.836;12.060;2023-02-28T01:22:30;3.40;80.20
19110;DHT22;9687;50.836;12.060;2023-02-28T01:24:58;3.40;80.10
19110;DHT22;9687;50.836;12.060;2023-02-28T01:27:25;3.40;80.10
19110;DHT22;9687;50.836;12.060;2023-02-28T01:29:52;3.40;80.10
19110;DHT22;9687;50.836;12.060;2023-02-28T01:32:20;3.40;80.10
19110;DHT22;9687;50.836;12.060;2023-02-28T01:34:47;3.40;80.10
19110;DHT22;9687;50.836;12.060;2023-02-28T01:37:15;3.40;80.10
19110;DHT22;9687;50.836;12.060;2023-02-28T01:39:43;3.40;80.10
19110;DHT22;9687;50.836;12.060;2023-02-28T01:42:10;3.40;80.10
19110;DHT22;9687;50.836;12.060;2023-02-28T01:47:23;3.40;80.10
19110;DHT22;9687;50.836;12.060;2023-02-28T01:49:51;3.40;80.10
19110;DHT22;9687;50.836;12.060;2023-02-28T01:52:21;3.40;80.10
19110;DHT22;9687;50.836;12.060;2023-02-28T01:54:52;3.40;80.20
19110;DHT22;9687;50.836;12.060;2023-02-28T01:57:21;3.30;80.00
19110;DHT22;9687;50.836;12.060;2023-02-28T01:59:52;3.30;80.00
19110;DHT22;9687;50.836;12.060;2023-02-28T02:02:21;3.30;80.00
19110;DHT22;9687;50.836;12.060;2023-02-28T02:04:50;3.30;80.00
19110;DHT22;9687;50.836;12.060;2023-02-28T02:07:19;3.40;80.10
19110;DHT22;9687;50.836;12.060;2023-02-28T02:09:48;3.30;80.00
19110;DHT22;9687;50.836;12.060;2023-02-28T02:12:18;3.30;80.00
19110;DHT22;9687;50.836;12.060;2023-02-28T02:14:52;3.30;80.00
19110;DHT22;9687;50.836;12.060;2023-02-28T02:17:26;3.30;80.00
19110;DHT22;9687;50.836;12.060;2023-02-28T02:23:01;3.30;80.10
19110;DHT22;9687;50.836;12.060;2023-02-28T02:25:31;3.30;80.00
19110;DHT22;9687;50.836;12.060;2023-02-28T02:31:03;3.30;80.10
19110;DHT22;9687;50.836;12.060;2023-02-28T02:33:48;3.30;80.10
19110;DHT22;9687;50.836;12.060;2023-02-28T02:36:21;3.30;80.00
19110;DHT22;9687;50.836;12.060;2023-02-28T02:38:50;3.30;80.00
19110;DHT22;9687;50.836;12.060;2023-02-28T02:41:19;3.30;80.00
19110;DHT22;9687;50.836;12.060;2023-02-28T02:43:51;3.30;80.00
19110;DHT22;9687;50.836;12.060;2023-02-28T02:46:21;3.30;80.00
19110;DHT22;9687;50.836;12.060;2023-02-28T02:48:50;3.30;80.00
19110;DHT22;9687;50.836;12.060;2023-02-28T02:51:19;3.30;79.90
19110;DHT22;9687;50.836;12.060;2023-02-28T02:53:49;3.30;80.00
19110;DHT22;9687;50.836;12.060;2023-02-28T02:56:17;3.30;80.00
19110;DHT22;9687;50.836;12.060;2023-02-28T02:58:47;3.30;80.70
19110;DHT22;9687;50.836;12.060;2023-02-28T03:01:17;3.30;80.00
19110;DHT22;9687;50.836;12.060;2023-02-28T03:03:54;3.30;80.00
19110;DHT22;9687;50.836;12.060;2023-02-28T03:06:22;3.30;80.00
19110;DHT22;9687;50.836;12.060;2023-02-28T03:08:51;3.30;80.10
19110;DHT22;9687;50.836;12.060;2023-02-28T03:11:18;3.20;79.90
19110;DHT22;9687;50.836;12.060;2023-02-28T03:13:50;3.20;79.90
19110;DHT22;9687;50.836;12.060;2023-02-28T03:16:44;3.20;80.00
19110;DHT22;9687;50.836;12.060;2023-02-28T03:19:38;3.20;80.00
19110;DHT22;9687;50.836;12.060;2023-02-28T03:22:12;3.30;80.00
19110;DHT22;9687;50.836;12.060;2023-02-28T03:24:43;3.30;80.00
19110;DHT22;9687;50.836;12.060;2023-02-28T03:27:15;3.20;79.80
19110;DHT22;9687;50.836;12.060;2023-02-28T03:29:45;3.20;79.80
19110;DHT22;9687;50.836;12.060;2023-02-28T03:32:14;3.20;79.80
19110;DHT22;9687;50.836;12.060;2023-02-28T03:34:49;3.20;79.90
19110;DHT22;9687;50.836;12.060;2023-02-28T03:37:18;3.20;79.90
19110;DHT22;9687;50.836;12.060;2023-02-28T03:39:49;3.20;79.80
19110;DHT22;9687;50.836;12.060;2023-02-28T03:42:19;3.20;79.80
19110;DHT22;9687;50.836;12.060;2023-02-28T03:44:48;3.20;79.90
19110;DHT22;9687;50.836;12.060;2023-02-28T03:47:17;3.20;79.80
19110;DHT22;9687;50.836;12.060;2023-02-28T03:49:49;3.20;79.90
19110;DHT22;9687;50.836;12.060;2023-02-28T03:52:18;3.20;79.90
19110;DHT22;9687;50.836;12.060;2023-02-28T03:54:48;3.20;79.90
19110;DHT22;9687;50.836;12.060;2023-02-28T03:57:18;3.20;79.90
19110;DHT22;9687;50.836;12.060;2023-02-28T03:59:49;3.10;79.80
19110;DHT22;9687;50.836;12.060;2023-02-28T04:02:18;3.20;79.90
19110;DHT22;9687;50.836;12.060;2023-02-28T04:04:45;3.10;79.80
19110;DHT22;9687;50.836;12.060;2023-02-28T04:07:14;3.20;79.90
19110;DHT22;9687;50.836;12.060;2023-02-28T04:09:41;3.10;79.80
19110;DHT22;9687;50.836;12.060;2023-02-28T04:12:10;3.10;79.80
19110;DHT22;9687;50.836;12.060;2023-02-28T04:14:37;3.10;79.80
19110;DHT22;9687;50.836;12.060;2023-02-28T04:17:06;3.10;79.80
19110;DHT22;9687;50.836;12.060;2023-02-28T04:19:33;3.10;79.80
19110;DHT22;9687;50.836;12.060;2023-02-28T04:22:00;3.10;79.80
19110;DHT22;9687;50.836;12.060;2023-02-28T04:24:29;3.10;79.80
19110;DHT22;9687;50.836;12.060;2023-02-28T04:26:57;3.10;79.70
19110;DHT22;9687;50.836;12.060;2023-02-28T04:29:26;3.10;79.60
19110;DHT22;9687;50.836;12.060;2023-02-28T04:31:54;3.10;79.70
19110;DHT22;9687;50.836;12.060;2023-02-28T04:34:24;3.10;79.70
19110;DHT22;9687;50.836;12.060;2023-02-28T04:36:51;3.00;79.60
19110;DHT22;9687;50.836;12.060;2023-02-28T04:39:20;3.00;79.60
19110;DHT22;9687;50.836;12.060;2023-02-28T04:41:48;3.00;79.70
19110;DHT22;9687;50.836;12.060;2023-02-28T04:44:15;3.20;80.00
19110;DHT22;9687;50.836;12.060;2023-02-28T04:46:43;3.00;79.80
19110;DHT22;9687;50.836;12.060;2023-02-28T04:49:11;3.00;79.80
19110;DHT22;9687;50.836;12.060;2023-02-28T04:51:38;3.00;79.80
19110;DHT22;9687;50.836;12.060;2023-02-28T04:54:06;2.90;79.70
19110;DHT22;9687;50.836;12.060;2023-02-28T04:56:33;2.90;79.70
19110;DHT22;9687;50.836;12.060;2023-02-28T04:59:01;2.90;79.80
19110;DHT22;9687;50.836;12.060;2023-02-28T05:01:28;2.90;79.90
19110;DHT22;9687;50.836;12.060;2023-02-28T05:03:58;2.90;79.90
19110;DHT22;9687;50.836;12.060;2023-02-28T05:06:26;2.90;79.90
19110;DHT22;9687;50.836;12.060;2023-02-28T05:08:53;2.90;79.90
19110;DHT22;9687;50.836;12.060;2023-02-28T05:11:22;2.90;79.90
19110;DHT22;9687;50.836;12.060;2023-02-28T05:13:50;2.90;79.80
19110;DHT22;9687;50.836;12.060;2023-02-28T05:16:17;3.00;79.90
19110;DHT22;9687;50.836;12.060;2023-02-28T05:18:46;2.90;79.90
19110;DHT22;9687;50.836;12.060;2023-02-28T05:21:28;2.90;79.80
19110;DHT22;9687;50.836;12.060;2023-02-28T05:23:56;2.90;79.70
19110;DHT22;9687;50.836;12.060;2023-02-28T05:26:23;2.90;79.80
19110;DHT22;9687;50.836;12.060;2023-02-28T05:28:50;2.90;79.70
19110;DHT22;9687;50.836;12.060;2023-02-28T05:31:18;2.90;79.70
19110;DHT22;9687;50.836;12.060;2023-02-28T05:33:45;2.90;79.70
19110;DHT22;9687;50.836;12.060;2023-02-28T05:36:13;2.90;79.70
19110;DHT22;9687;50.836;12.060;2023-02-28T05:38:42;2.90;79.60
19110;DHT22;9687;50.836;12.060;2023-02-28T05:41:10;2.80;79.60
19110;DHT22;9687;50.836;12.060;2023-02-28T05:43:38;2.90;79.60
19110;DHT22;9687;50.836;12.060;2023-02-28T05:46:06;2.80;78.80
19110;DHT22;9687;50.836;12.060;2023-02-28T05:48:34;2.80;79.50
19110;DHT22;9687;50.836;12.060;2023-02-28T05:51:01;2.80;79.50
19110;DHT22;9687;50.836;12.060;2023-02-28T05:53:29;2.80;79.50
19110;DHT22;9687;50.836;12.060;2023-02-28T05:55:58;2.70;79.30
19110;DHT22;9687;50.836;12.060;2023-02-28T05:58:25;2.80;79.40
19110;DHT22;9687;50.836;12.060;2023-02-28T06:00:56;2.80;79.40
19110;DHT22;9687;50.836;12.060;2023-02-28T06:03:23;2.80;79.40
19110;DHT22;9687;50.836;12.060;2023-02-28T06:05:51;2.70;79.40
19110;DHT22;9687;50.836;12.060;2023-02-28T06:08:19;2.80;79.50
19110;DHT22;9687;50.836;12.060;2023-02-28T06:10:46;2.80;79.50
19110;DHT22;9687;50.836;12.060;2023-02-28T06:13:15;2.80;80.20
19110;DHT22;9687;50.836;12.060;2023-02-28T06:15:43;2.80;79.40
19110;DHT22;9687;50.836;12.060;2023-02-28T06:18:10;2.70;79.30
19110;DHT22;9687;50.836;12.060;2023-02-28T06:20:37;2.70;79.30
19110;DHT22;9687;50.836;12.060;2023-02-28T06:23:05;2.70;79.40
19110;DHT22;9687;50.836;12.060;2023-02-28T06:25:32;2.70;79.50
19110;DHT22;9687;50.836;12.060;2023-02-28T06:27:59;2.70;79.40
19110;DHT22;9687;50.836;12.060;2023-02-28T06:30:29;2.70;79.50
19110;DHT22;9687;50.836;12.060;2023-02-28T06:32:57;2.70;79.50
19110;DHT22;9687;50.836;12.060;2023-02-28T06:35:25;2.70;79.50
19110;DHT22;9687;50.836;12.060;2023-02-28T06:37:53;2.70;79.50
19110;DHT22;9687;50.836;12.060;2023-02-28T06:40:20;2.70;79.40
19110;DHT22;9687;50.836;12.060;2023-02-28T06:42:47;2.70;79.50
19110;DHT22;9687;50.836;12.060;2023-02-28T06:45:15;2.80;79.50
19110;DHT22;9687;50.836;12.060;2023-02-28T06:47:44;2.80;79.50
19110;DHT22;9687;50.836;12.060;2023-02-28T06:50:11;2.70;79.40
19110;DHT22;9687;50.836;12.060;2023-02-28T06:52:39;2.80;79.50
19110;DHT22;9687;50.836;12.060;2023-02-28T06:55:07;2.80;79.50
19110;DHT22;9687;50.836;12.060;2023-02-28T06:57:35;2.80;79.50
19110;DHT22;9687;50.836;12.060;2023-02-28T07:00:03;2.80;79.40
19110;DHT22;9687;50.836;12.060;2023-02-28T07:02:31;2.80;79.50
19110;DHT22;9687;50.836;12.060;2023-02-28T07:05:00;2.90;79.60
19110;DHT22;9687;50.836;12.060;2023-02-28T07:07:27;2.80;79.40
19110;DHT22;9687;50.836;12.060;2023-02-28T07:09:55;2.90;79.40
19110;DHT22;9687;50.836;12.060;2023-02-28T07:12:22;2.90;79.50
19110;DHT22;9687;50.836;12.060;2023-02-28T07:14:50;2.90;79.60
19110;DHT22;9687;50.836;12.060;2023-02-28T07:17:18;2.90;79.60
19110;DHT22;9687;50.836;12.060;2023-02-28T07:19:45;2.90;79.70
19110;DHT22;9687;50.836;12.060;2023-02-28T07:22:14;2.90;79.60
19110;DHT22;9687;50.836;12.060;2023-02-28T07:24:41;2.90;79.60
19110;DHT22;9687;50.836;12.060;2023-02-28T07:27:08;3.00;79.70
19110;DHT22;9687;50.836;12.060;2023-02-28T07:29:36;3.00;79.70
19110;DHT22;9687;50.836;12.060;2023-02-28T07:32:04;3.10;79.70
19110;DHT22;9687;50.836;12.060;2023-02-28T07:34:31;3.10;79.70
19110;DHT22;9687;50.836;12.060;2023-02-28T07:36:59;3.10;79.70
19110;DHT22;9687;50.836;12.060;2023-02-28T07:39:31;3.10;79.70
19110;DHT22;9687;50.836;12.060;2023-02-28T07:41:59;3.10;79.70
19110;DHT22;9687;50.836;12.060;2023-02-28T07:44:29;3.20;79.80
19110;DHT22;9687;50.836;12.060;2023-02-28T07:46:57;3.20;79.90
19110;DHT22;9687;50.836;12.060;2023-02-28T07:49:24;3.30;79.90
19110;DHT22;9687;50.836;12.060;2023-02-28T07:51:52;3.40;80.10
19110;DHT22;9687;50.836;12.060;2023-02-28T07:54:19;3.50;80.40
19110;DHT22;9687;50.836;12.060;2023-02-28T07:56:48;3.60;80.40
19110;DHT22;9687;50.836;12.060;2023-02-28T07:59:15;3.80;80.30
19110;DHT22;9687;50.836;12.060;2023-02-28T08:01:42;4.00;79.90
19110;DHT22;9687;50.836;12.060;2023-02-28T08:04:10;4.30;80.00
19110;DHT22;9687;50.836;12.060;2023-02-28T08:06:38;4.50;79.70
19110;DHT22;9687;50.836;12.060;2023-02-28T08:09:05;4.90;79.40
19110;DHT22;9687;50.836;12.060;2023-02-28T08:11:32;5.20;78.50
19110;DHT22;9687;50.836;12.060;2023-02-28T08:14:01;5.50;77.50
19110;DHT22;9687;50.836;12.060;2023-02-28T08:16:28;5.80;76.90
19110;DHT22;9687;50.836;12.060;2023-02-28T08:18:56;6.00;76.20
19110;DHT22;9687;50.836;12.060;2023-02-28T08:21:24;6.20;75.40
19110;DHT22;9687;50.836;12.060;2023-02-28T08:23:51;6.50;74.90
19110;DHT22;9687;50.836;12.060;2023-02-28T08:26:18;6.70;74.40
19110;DHT22;9687;50.836;12.060;2023-02-28T08:28:47;7.00;73.60
19110;DHT22;9687;50.836;12.060;2023-02-28T08:31:18;7.20;71.80
19110;DHT22;9687;50.836;12.060;2023-02-28T08:33:46;7.30;71.00
19110;DHT22;9687;50.836;12.060;2023-02-28T08:36:14;7.50;70.90
19110;DHT22;9687;50.836;12.060;2023-02-28T08:38:42;7.70;70.10
19110;DHT22;9687;50.836;12.060;2023-02-28T08:41:10;7.90;69.80
19110;DHT22;9687;50.836;12.060;2023-02-28T08:43:38;8.10;69.00
19110;DHT22;9687;50.836;12.060;2023-02-28T08:46:05;8.30;68.10
19110;DHT22;9687;50.836;12.060;2023-02-28T08:48:35;8.50;67.10
19110;DHT22;9687;50.836;12.060;2023-02-28T08:51:04;8.60;65.70
19110;DHT22;9687;50.836;12.060;2023-02-28T08:53:32;8.70;65.10
19110;DHT22;9687;50.836;12.060;2023-02-28T08:56:00;8.80;65.90
19110;DHT22;9687;50.836;12.060;2023-02-28T08:58:27;8.90;65.50
19110;DHT22;9687;50.836;12.060;2023-02-28T09:00:55;8.90;64.50
19110;DHT22;9687;50.836;12.060;2023-02-28T09:03:23;9.00;62.40
19110;DHT22;9687;50.836;12.060;2023-02-28T09:05:55;8.90;63.00
19110;DHT22;9687;50.836;12.060;2023-02-28T09:08:23;9.00;62.60
19110;DHT22;9687;50.836;12.060;2023-02-28T09:10:51;9.10;62.40
19110;DHT22;9687;50.836;12.060;2023-02-28T09:13:20;9.20;61.50
19110;DHT22;9687;50.836;12.060;2023-02-28T09:15:48;9.30;61.10
19110;DHT22;9687;50.836;12.060;2023-02-28T09:18:15;9.40;60.60
19110;DHT22;9687;50.836;12.060;2023-02-28T09:20:43;9.40;59.10
19110;DHT22;9687;50.836;12.060;2023-02-28T09:23:12;9.40;59.60
19110;DHT22;9687;50.836;12.060;2023-02-28T09:25:45;9.40;58.70
19110;DHT22;9687;50.836;12.060;2023-02-28T09:28:14;9.40;58.50
19110;DHT22;9687;50.836;12.060;2023-02-28T09:30:44;9.40;56.90
19110;DHT22;9687;50.836;12.060;2023-02-28T09:33:11;9.20;56.00
19110;DHT22;9687;50.836;12.060;2023-02-28T09:35:39;9.10;56.00
19110;DHT22;9687;50.836;12.060;2023-02-28T09:38:07;8.90;55.60
19110;DHT22;9687;50.836;12.060;2023-02-28T09:40:36;8.70;56.50
19110;DHT22;9687;50.836;12.060;2023-02-28T09:43:04;8.80;57.10
19110;DHT22;9687;50.836;12.060;2023-02-28T09:45:32;8.70;56.20
19110;DHT22;9687;50.836;12.060;2023-02-28T09:48:01;8.60;55.90
19110;DHT22;9687;50.836;12.060;2023-02-28T09:50:32;8.50;55.20
19110;DHT22;9687;50.836;12.060;2023-02-28T09:53:02;8.30;55.10
19110;DHT22;9687;50.836;12.060;2023-02-28T09:55:31;8.20;55.00
19110;DHT22;9687;50.836;12.060;2023-02-28T09:58:02;8.00;56.00
19110;DHT22;9687;50.836;12.060;2023-02-28T10:00:30;8.00;56.30
19110;DHT22;9687;50.836;12.060;2023-02-28T10:03:04;7.80;55.40
19110;DHT22;9687;50.836;12.060;2023-02-28T10:05:34;7.60;56.10
19110;DHT22;9687;50.836;12.060;2023-02-28T10:08:05;7.60;56.40
19110;DHT22;9687;50.836;12.060;2023-02-28T10:10:36;7.70;56.60
19110;DHT22;9687;50.836;12.060;2023-02-28T10:13:06;7.80;56.40
19110;DHT22;9687;50.836;12.060;2023-02-28T10:15:39;7.80;55.40
19110;DHT22;9687;50.836;12.060;2023-02-28T10:18:09;7.80;55.70
19110;DHT22;9687;50.836;12.060;2023-02-28T10:20:39;7.80;55.40
19110;DHT22;9687;50.836;12.060;2023-02-28T10:23:09;7.70;55.60
19110;DHT22;9687;50.836;12.060;2023-02-28T10:25:38;7.60;55.40
19110;DHT22;9687;50.836;12.060;2023-02-28T10:28:11;7.50;55.50
19110;DHT22;9687;50.836;12.060;2023-02-28T10:30:40;7.40;55.80
19110;DHT22;9687;50.836;12.060;2023-02-28T10:33:13;7.20;55.40
19110;DHT22;9687;50.836;12.060;2023-02-28T10:35:43;7.00;55.80
19110;DHT22;9687;50.836;12.060;2023-02-28T10:38:13;6.90;56.00
19110;DHT22;9687;50.836;12.060;2023-02-28T10:40:41;6.80;56.20
19110;DHT22;9687;50.836;12.060;2023-02-28T10:43:19;6.70;56.40
19110;DHT22;9687;50.836;12.060;2023-02-28T10:45:55;6.70;56.40
19110;DHT22;9687;50.836;12.060;2023-02-28T10:48:35;6.60;56.50
19110;DHT22;9687;50.836;12.060;2023-02-28T10:51:04;6.70;57.00
19110;DHT22;9687;50.836;12.060;2023-02-28T10:53:32;6.60;56.60
19110;DHT22;9687;50.836;12.060;2023-02-28T10:56:03;6.60;56.40
19110;DHT22;9687;50.836;12.060;2023-02-28T10:58:40;6.70;56.50
19110;DHT22;9687;50.836;12.060;2023-02-28T11:01:16;6.70;56.40
19110;DHT22;9687;50.836;12.060;2023-02-28T11:03:44;6.70;56.10
19110;DHT22;9687;50.836;12.060;2023-02-28T11:06:15;6.70;56.10
19110;DHT22;9687;50.836;12.060;2023-02-28T11:08:47;6.70;55.50
19110;DHT22;9687;50.836;12.060;2023-02-28T11:11:17;6.60;55.40
19110;DHT22;9687;50.836;12.060;2023-02-28T11:13:53;6.60;56.20
19110;DHT22;9687;50.836;12.060;2023-02-28T11:16:21;6.60;55.80
19110;DHT22;9687;50.836;12.060;2023-02-28T11:18:52;6.60;55.60
19110;DHT22;9687;50.836;12.060;2023-02-28T11:21:23;6.50;55.60
19110;DHT22;9687;50.836;12.060;2023-02-28T11:23:54;6.40;55.30
19110;DHT22;9687;50.836;12.060;2023-02-28T11:26:36;6.30;55.60
19110;DHT22;9687;50.836;12.060;2023-02-28T11:29:11;6.30;56.30
19110;DHT22;9687;50.836;12.060;2023-02-28T11:31:38;6.50;56.20
19110;DHT22;9687;50.836;12.060;2023-02-28T11:36:49;6.80;55.20
19110;DHT22;9687;50.836;12.060;2023-02-28T11:39:19;6.80;55.60
19110;DHT22;9687;50.836;12.060;2023-02-28T11:41:53;7.00;55.20
19110;DHT22;9687;50.836;12.060;2023-02-28T11:44:31;7.10;55.60
19110;DHT22;9687;50.836;12.060;2023-02-28T11:47:03;7.30;55.10
19110;DHT22;9687;50.836;12.060;2023-02-28T11:49:37;7.40;55.30
19110;DHT22;9687;50.836;12.060;2023-02-28T11:52:10;7.50;54.50
19110;DHT22;9687;50.836;12.060;2023-02-28T11:54:50;7.60;54.80
19110;DHT22;9687;50.836;12.060;2023-02-28T11:57:26;7.70;54.10
19110;DHT22;9687;50.836;12.060;2023-02-28T11:59:59;7.70;55.00
19110;DHT22;9687;50.836;12.060;2023-02-28T12:02:29;7.90;55.50
19110;DHT22;9687;50.836;12.060;2023-02-28T12:07:53;8.30;54.90
19110;DHT22;9687;50.836;12.060;2023-02-28T12:10:26;8.30;54.00
19110;DHT22;9687;50.836;12.060;2023-02-28T12:13:01;8.30;53.00
19110;DHT22;9687;50.836;12.060;2023-02-28T12:15:41;8.20;53.00
19110;DHT22;9687;50.836;12.060;2023-02-28T12:18:20;8.00;53.00
19110;DHT22;9687;50.836;12.060;2023-02-28T12:20:53;7.90;53.80
19110;DHT22;9687;50.836;12.060;2023-02-28T12:23:23;7.90;54.40
19110;DHT22;9687;50.836;12.060;2023-02-28T12:25:56;8.00;54.70
19110;DHT22;9687;50.836;12.060;2023-02-28T12:28:31;8.00;54.30
19110;DHT22;9687;50.836;12.060;2023-02-28T12:31:03;8.00;54.70
19110;DHT22;9687;50.836;12.060;2023-02-28T12:33:35;8.00;54.60
19110;DHT22;9687;50.836;12.060;2023-02-28T12:36:04;8.00;54.50
19110;DHT22;9687;50.836;12.060;2023-02-28T12:38:34;8.10;54.80
19110;DHT22;9687;50.836;12.060;2023-02-28T12:41:04;8.10;54.30
19110;DHT22;9687;50.836;12.060;2023-02-28T12:43:34;8.10;54.00
19110;DHT22;9687;50.836;12.060;2023-02-28T12:46:07;8.00;53.90
19110;DHT22;9687;50.836;12.060;2023-02-28T12:48:37;8.00;54.00
19110;DHT22;9687;50.836;12.060;2023-02-28T12:51:06;7.90;54.30
19110;DHT22;9687;50.836;12.060;2023-02-28T12:53:35;7.90;54.60
19110;DHT22;9687;50.836;12.060;2023-02-28T12:56:12;8.00;54.60
19110;DHT22;9687;50.836;12.060;2023-02-28T12:58:41;8.00;54.10
19110;DHT22;9687;50.836;12.060;2023-02-28T13:01:29;8.00;54.60
19110;DHT22;9687;50.836;12.060;2023-02-28T13:04:07;8.00;54.40
19110;DHT22;9687;50.836;12.060;2023-02-28T13:06:41;8.10;55.10
19110;DHT22;9687;50.836;12.060;2023-02-28T13:09:13;8.10;54.90
19110;DHT22;9687;50.836;12.060;2023-02-28T13:11:41;8.00;54.30
19110;DHT22;9687;50.836;12.060;2023-02-28T13:14:20;8.00;54.50
19110;DHT22;9687;50.836;12.060;2023-02-28T13:17:01;7.90;54.90
19110;DHT22;9687;50.836;12.060;2023-02-28T13:19:35;8.00;55.20
19110;DHT22;9687;50.836;12.060;2023-02-28T13:22:03;7.90;55.10
19110;DHT22;9687;50.836;12.060;2023-02-28T13:24:39;8.00;55.30
19110;DHT22;9687;50.836;12.060;2023-02-28T13:29:59;7.90;54.80
19110;DHT22;9687;50.836;12.060;2023-02-28T13:32:36;7.80;54.40
19110;DHT22;9687;50.836;12.060;2023-02-28T13:35:14;7.70;54.50
19110;DHT22;9687;50.836;12.060;2023-02-28T13:37:42;7.50;54.80
19110;DHT22;9687;50.836;12.060;2023-02-28T13:40:27;7.40;55.00
19110;DHT22;9687;50.836;12.060;2023-02-28T13:42:55;7.30;55.10
19110;DHT22;9687;50.836;12.060;2023-02-28T13:45:26;7.30;55.40
19110;DHT22;9687;50.836;12.060;2023-02-28T13:47:59;7.30;55.60
19110;DHT22;9687;50.836;12.060;2023-02-28T13:50:29;7.10;55.10
19110;DHT22;9687;50.836;12.060;2023-02-28T13:53:01;7.00;55.40
19110;DHT22;9687;50.836;12.060;2023-02-28T13:55:31;6.90;55.40
19110;DHT22;9687;50.836;12.060;2023-02-28T13:58:08;6.80;55.50
19110;DHT22;9687;50.836;12.060;2023-02-28T14:00:48;6.70;55.30
19110;DHT22;9687;50.836;12.060;2023-02-28T14:03:25;6.60;56.20
19110;DHT22;9687;50.836;12.060;2023-02-28T14:06:09;6.60;56.40
19110;DHT22;9687;50.836;12.060;2023-02-28T14:08:42;6.70;56.50
19110;DHT22;9687;50.836;12.060;2023-02-28T14:11:23;6.70;56.50
19110;DHT22;9687;50.836;12.060;2023-02-28T14:13:51;6.70;56.30
19110;DHT22;9687;50.836;12.060;2023-02-28T14:16:20;6.80;56.50
19110;DHT22;9687;50.836;12.060;2023-02-28T14:18:50;6.80;56.50
19110;DHT22;9687;50.836;12.060;2023-02-28T14:21:22;6.80;56.40
19110;DHT22;9687;50.836;12.060;2023-02-28T14:26:55;6.80;56.40
19110;DHT22;9687;50.836;12.060;2023-02-28T14:29:38;6.70;56.20
19110;DHT22;9687;50.836;12.060;2023-02-28T14:32:13;6.70;56.30
19110;DHT22;9687;50.836;12.060;2023-02-28T14:34:48;6.60;56.30
19110;DHT22;9687;50.836;12.060;2023-02-28T14:37:20;6.60;56.40
19110;DHT22;9687;50.836;12.060;2023-02-28T14:39:50;6.60;56.60
19110;DHT22;9687;50.836;12.060;2023-02-28T14:42:27;6.60;56.80
19110;DHT22;9687;50.836;12.060;2023-02-28T14:44:55;6.60;56.60
19110;DHT22;9687;50.836;12.060;2023-02-28T14:47:23;6.70;56.60
19110;DHT22;9687;50.836;12.060;2023-02-28T14:49:53;6.70;56.50
19110;DHT22;9687;50.836;12.060;2023-02-28T14:52:22;6.60;56.70
19110;DHT22;9687;50.836;12.060;2023-02-28T14:54:51;6.60;56.80
19110;DHT22;9687;50.836;12.060;2023-02-28T14:57:23;6.60;56.90
19110;DHT22;9687;50.836;12.060;2023-02-28T14:59:58;6.60;57.00
19110;DHT22;9687;50.836;12.060;2023-02-28T15:02:26;6.50;57.20
19110;DHT22;9687;50.836;12.060;2023-02-28T15:04:59;6.60;57.60
19110;DHT22;9687;50.836;12.060;2023-02-28T15:07:27;6.70;57.70
19110;DHT22;9687;50.836;12.060;2023-02-28T15:10:07;6.70;57.70
19110;DHT22;9687;50.836;12.060;2023-02-28T15:12:35;6.80;57.60
19110;DHT22;9687;50.836;12.060;2023-02-28T15:15:03;6.90;58.10
19110;DHT22;9687;50.836;12.060;2023-02-28T15:17:30;6.90;57.30
19110;DHT22;9687;50.836;12.060;2023-02-28T15:19:59;6.90;57.30
19110;DHT22;9687;50.836;12.060;2023-02-28T15:22:27;6.90;57.20
19110;DHT22;9687;50.836;12.060;2023-02-28T15:24:56;6.90;57.20
19110;DHT22;9687;50.836;12.060;2023-02-28T15:27:25;7.00;57.50
19110;DHT22;9687;50.836;12.060;2023-02-28T15:29:53;7.00;57.50
19110;DHT22;9687;50.836;12.060;2023-02-28T15:32:26;7.00;57.60
19110;DHT22;9687;50.836;12.060;2023-02-28T15:34:54;7.00;57.50
19110;DHT22;9687;50.836;12.060;2023-02-28T15:37:28;7.10;57.50
19110;DHT22;9687;50.836;12.060;2023-02-28T15:39:57;7.10;57.30
19110;DHT22;9687;50.836;12.060;2023-02-28T15:42:27;7.10;57.30
19110;DHT22;9687;50.836;12.060;2023-02-28T15:44:55;7.10;57.30
19110;DHT22;9687;50.836;12.060;2023-02-28T15:47:23;7.00;57.30
19110;DHT22;9687;50.836;12.060;2023-02-28T15:49:52;7.10;57.30
19110;DHT22;9687;50.836;12.060;2023-02-28T15:52:20;7.00;57.30
19110;DHT22;9687;50.836;12.060;2023-02-28T15:54:50;6.90;57.20
19110;DHT22;9687;50.836;12.060;2023-02-28T15:57:18;6.80;57.50
19110;DHT22;9687;50.836;12.060;2023-02-28T15:59:49;6.80;57.70
19110;DHT22;9687;50.836;12.060;2023-02-28T16:02:18;6.70;57.80
19110;DHT22;9687;50.836;12.060;2023-02-28T16:07:41;6.70;58.10
19110;DHT22;9687;50.836;12.060;2023-02-28T16:10:11;6.60;58.10
19110;DHT22;9687;50.836;12.060;2023-02-28T16:12:40;6.60;58.10
19110;DHT22;9687;50.836;12.060;2023-02-28T16:15:08;6.60;58.10
19110;DHT22;9687;50.836;12.060;2023-02-28T16:17:37;6.60;58.20
19110;DHT22;9687;50.836;12.060;2023-02-28T16:20:06;6.40;58.20
19110;DHT22;9687;50.836;12.060;2023-02-28T16:22:39;6.50;58.20
19110;DHT22;9687;50.836;12.060;2023-02-28T16:25:08;6.50;58.30